createdAt,value
2022-12-11T00:06:40.380Z,26.73
2022-12-11T00:11:48.925Z,36.73
2022-12-11T00:16:51.875Z,36.03
2022-12-11T00:21:54.841Z,33.73
2022-12-11T00:26:58.939Z,28.47
2022-12-11T00:32:02.272Z,34.00
2022-12-11T00:37:05.137Z,27.60
2022-12-11T00:42:10.021Z,37.73
2022-12-11T00:47:17.226Z,23.23
2022-12-11T00:52:21.228Z,33.37
2022-12-11T00:57:26.184Z,28.35
2022-12-11T01:02:29.761Z,19.63
2022-12-11T01:07:33.599Z,25.50
2022-12-11T01:12:37.653Z,27.13
2022-12-11T01:17:40.800Z,25.50
2022-12-11T01:22:43.461Z,33.97
2022-12-11T01:27:47.944Z,13.67
2022-12-11T01:32:51.104Z,31.17
2022-12-11T01:43:00.005Z,16.13
2022-12-11T01:48:05.296Z,22.20
2022-12-11T01:53:10.449Z,29.50
2022-12-11T01:58:16.628Z,27.57
2022-12-11T02:03:19.456Z,18.53
2022-12-11T02:08:22.575Z,24.87
2022-12-11T02:13:36.761Z,28.73
2022-12-11T02:18:42.532Z,18.50
2022-12-11T02:24:00.441Z,33.77
2022-12-11T02:29:07.664Z,31.73
2022-12-11T02:34:13.099Z,23.40
2022-12-11T02:39:19.173Z,29.40
2022-12-11T02:44:25.627Z,28.30
2022-12-11T02:49:30.662Z,12.53
2022-12-11T02:54:36.066Z,19.45
2022-12-11T02:59:42.717Z,28.53
2022-12-11T03:04:48.339Z,19.50
2022-12-11T03:09:51.105Z,23.43
2022-12-11T03:14:55.817Z,17.20
2022-12-11T03:20:05.444Z,25.90
2022-12-11T03:25:12.842Z,23.07
2022-12-11T03:30:18.778Z,10.83
2022-12-11T03:35:24.219Z,24.30
2022-12-11T03:40:30.102Z,22.63
2022-12-11T03:45:36.050Z,26.67
2022-12-11T03:50:39.664Z,22.20
2022-12-11T03:55:46.149Z,16.13
2022-12-11T04:00:56.629Z,21.33
2022-12-11T04:05:59.905Z,24.53
2022-12-11T04:11:21.647Z,23.60
2022-12-11T04:16:27.012Z,21.27
2022-12-11T04:21:47.048Z,22.03
2022-12-11T04:26:50.436Z,18.07
2022-12-11T04:31:56.207Z,15.15
2022-12-11T04:37:01.667Z,22.20
2022-12-11T04:42:04.991Z,21.37
2022-12-11T04:47:09.474Z,6.90
2022-12-11T04:52:12.222Z,17.43
2022-12-11T04:57:15.417Z,14.43
2022-12-11T05:02:20.774Z,16.10
2022-12-11T05:07:24.936Z,12.47
2022-12-11T05:12:28.043Z,15.18
2022-12-11T05:17:33.170Z,11.87
2022-12-11T05:22:36.705Z,15.50
2022-12-11T05:27:39.339Z,14.95
2022-12-11T05:32:43.932Z,12.60
2022-12-11T05:37:46.689Z,13.83
2022-12-11T05:42:49.720Z,12.80
2022-12-11T05:47:53.625Z,12.80
2022-12-11T05:52:56.495Z,13.48
2022-12-11T05:57:59.402Z,14.57
2022-12-11T06:03:05.217Z,15.23
2022-12-11T06:08:08.450Z,11.97
2022-12-11T06:13:11.172Z,10.53
2022-12-11T06:18:15.566Z,16.07
2022-12-11T06:23:19.173Z,17.43
2022-12-11T06:28:21.798Z,16.55
2022-12-11T06:33:26.266Z,18.20
2022-12-11T06:38:31.959Z,17.00
2022-12-11T06:43:37.966Z,4.40
2022-12-11T06:48:43.601Z,18.30
2022-12-11T06:53:46.622Z,17.60
2022-12-11T06:58:49.615Z,15.40
2022-12-11T07:03:57.540Z,22.60
2022-12-11T07:09:00.602Z,21.53
2022-12-11T07:14:03.470Z,10.67
2022-12-11T07:19:08.764Z,13.43
2022-12-11T07:24:12.946Z,17.57
2022-12-11T07:34:19.767Z,17.70
2022-12-11T07:39:22.941Z,20.98
2022-12-11T07:44:31.275Z,5.10
2022-12-11T07:49:36.511Z,15.80
2022-12-11T07:54:46.655Z,14.07
2022-12-11T07:59:49.552Z,20.93
2022-12-11T08:04:54.099Z,17.27
2022-12-11T08:10:01.734Z,11.90
2022-12-11T08:15:05.419Z,23.93
2022-12-11T08:25:14.479Z,18.42
2022-12-11T08:30:17.712Z,23.33
2022-12-11T08:35:20.635Z,12.97
2022-12-11T08:40:24.960Z,18.83
2022-12-11T08:45:29.979Z,22.27
2022-12-11T08:50:32.814Z,23.60
2022-12-11T08:55:38.879Z,22.03
2022-12-11T09:00:43.046Z,20.67
2022-12-11T09:10:51.677Z,20.50
2022-12-11T09:15:54.311Z,18.23
2022-12-11T09:21:01.089Z,19.57
2022-12-11T09:26:09.249Z,14.97
2022-12-11T09:31:13.842Z,18.43
2022-12-11T09:36:21.356Z,18.10
2022-12-11T09:41:39.563Z,15.90
2022-12-11T09:46:42.997Z,17.17
2022-12-11T09:51:49.529Z,15.27
2022-12-11T09:56:58.295Z,19.13
2022-12-11T10:02:04.451Z,12.90
2022-12-11T10:07:12.894Z,18.03
2022-12-11T10:12:31.182Z,16.07
2022-12-11T10:17:36.929Z,17.10
2022-12-11T10:22:40.332Z,17.30
2022-12-11T10:27:46.788Z,14.57
2022-12-11T10:32:55.760Z,16.40
2022-12-11T10:38:03.155Z,12.45
2022-12-11T10:43:09.235Z,12.32
2022-12-11T10:48:13.668Z,13.48
2022-12-11T10:53:21.326Z,17.27
2022-12-11T10:58:26.767Z,10.32
2022-12-11T11:03:30.047Z,13.73
2022-12-11T11:08:39.720Z,13.50
2022-12-11T11:13:45.532Z,12.98
2022-12-11T11:18:52.160Z,15.93
2022-12-11T11:23:55.903Z,15.13
2022-12-11T11:34:22.834Z,11.23
2022-12-11T11:39:29.428Z,14.93
2022-12-11T11:44:35.409Z,13.68
2022-12-11T11:49:47.357Z,16.60
2022-12-11T11:54:53.413Z,13.20
2022-12-11T12:00:08.334Z,13.30
2022-12-11T12:05:15.010Z,13.82
2022-12-11T12:10:20.476Z,13.38
2022-12-11T12:15:39.821Z,15.85
2022-12-11T12:20:47.570Z,9.97
2022-12-11T12:25:55.566Z,15.90
2022-12-11T12:31:10.675Z,9.23
2022-12-11T12:36:18.903Z,9.77
2022-12-11T12:41:23.620Z,11.50
2022-12-11T12:46:30.724Z,9.95
2022-12-11T12:51:38.175Z,8.77
2022-12-11T12:56:43.678Z,8.00
2022-12-11T13:01:52.584Z,10.93
2022-12-11T13:06:58.449Z,9.57
2022-12-11T13:12:02.273Z,7.00
2022-12-11T13:17:10.153Z,7.32
2022-12-11T13:22:25.367Z,8.27
2022-12-11T13:27:40.123Z,8.57
2022-12-11T13:32:51.684Z,7.80
2022-12-11T13:37:59.637Z,8.93
2022-12-11T13:43:04.850Z,8.00
2022-12-11T13:48:19.424Z,7.90
2022-12-11T13:53:25.989Z,7.03
2022-12-11T13:58:29.897Z,7.63
2022-12-11T14:03:33.021Z,5.57
2022-12-11T14:08:38.819Z,7.90
2022-12-11T14:13:42.764Z,8.33
2022-12-11T14:23:54.669Z,9.53
2022-12-11T14:28:58.329Z,14.37
2022-12-11T14:34:04.460Z,7.63
2022-12-11T14:39:12.938Z,7.60
2022-12-11T14:44:22.270Z,7.13
2022-12-11T14:49:27.884Z,8.33
2022-12-11T14:54:36.064Z,9.83
2022-12-11T14:59:42.047Z,9.57
2022-12-11T15:04:45.530Z,13.43
2022-12-11T15:09:52.013Z,14.15
2022-12-11T15:14:58.006Z,10.73
2022-12-11T15:20:04.677Z,7.73
2022-12-11T15:25:18.995Z,9.93
2022-12-11T15:30:32.787Z,2.80
2022-12-11T15:35:36.273Z,7.28
2022-12-11T15:40:40.597Z,9.30
2022-12-11T15:45:45.690Z,8.43
2022-12-11T15:50:51.998Z,17.40
2022-12-11T15:55:56.597Z,8.50
2022-12-11T16:00:59.573Z,14.40
2022-12-11T16:06:03.717Z,6.85
2022-12-11T16:11:10.878Z,13.60
2022-12-11T16:16:15.161Z,9.00
2022-12-11T16:21:22.252Z,9.53
2022-12-11T16:26:26.688Z,5.77
2022-12-11T16:36:35.072Z,10.50
2022-12-11T16:41:39.408Z,14.07
2022-12-11T16:46:42.293Z,14.80
2022-12-11T16:51:45.200Z,11.43
2022-12-11T16:56:49.405Z,12.03
2022-12-11T17:01:52.593Z,10.00
2022-12-11T17:07:00.969Z,13.60
2022-12-11T17:12:06.502Z,15.07
2022-12-11T17:17:09.285Z,7.37
2022-12-11T17:22:12.002Z,6.90
2022-12-11T17:27:16.129Z,9.53
2022-12-11T17:37:23.430Z,11.57
2022-12-11T17:42:27.758Z,18.00
2022-12-11T17:47:30.788Z,14.50
2022-12-11T17:52:35.601Z,10.27
2022-12-11T17:57:42.178Z,13.83
2022-12-11T18:02:46.971Z,10.23
2022-12-11T18:07:57.286Z,4.97
2022-12-11T18:13:01.781Z,17.90
2022-12-11T18:18:05.093Z,17.52
2022-12-11T18:23:08.426Z,7.13
2022-12-11T18:28:13.620Z,17.40
2022-12-11T18:33:19.006Z,19.83
2022-12-11T18:43:26.047Z,9.63
2022-12-11T18:48:30.929Z,16.63
2022-12-11T18:53:34.693Z,19.17
2022-12-11T18:58:39.498Z,19.05
2022-12-11T19:03:42.743Z,18.43
2022-12-11T19:08:45.967Z,15.83
2022-12-11T19:13:50.578Z,18.57
2022-12-11T19:18:54.108Z,20.20
2022-12-11T19:24:00.904Z,17.50
2022-12-11T19:29:06.364Z,17.63
2022-12-11T19:34:09.831Z,19.10
2022-12-11T19:39:13.589Z,13.65
2022-12-11T19:44:20.729Z,15.05
2022-12-11T19:49:24.950Z,17.33
2022-12-11T19:54:28.667Z,15.00
2022-12-11T19:59:34.450Z,11.13
2022-12-11T20:04:37.752Z,17.30
2022-12-11T20:09:41.838Z,18.70
2022-12-11T20:14:47.683Z,22.53
2022-12-11T20:19:51.899Z,21.03
2022-12-11T20:24:56.318Z,16.08
2022-12-11T20:30:01.178Z,10.33
2022-12-11T20:35:11.917Z,12.57
2022-12-11T20:40:16.079Z,18.60
2022-12-11T20:45:23.574Z,12.20
2022-12-11T20:50:26.673Z,20.17
2022-12-11T20:55:29.720Z,9.53
2022-12-11T21:00:37.072Z,15.73
2022-12-11T21:05:41.897Z,17.27
2022-12-11T21:10:46.573Z,18.03
2022-12-11T21:15:53.980Z,17.87
2022-12-11T21:20:57.491Z,18.93
2022-12-11T21:26:02.232Z,15.20
2022-12-11T21:31:09.827Z,9.17
2022-12-11T21:36:13.966Z,9.87
2022-12-11T21:46:23.183Z,4.83
2022-12-11T21:51:38.526Z,11.32
2022-12-11T21:56:42.885Z,5.00
2022-12-11T22:06:55.818Z,12.13
2022-12-11T22:11:59.033Z,12.30
2022-12-11T22:17:01.930Z,18.93
2022-12-11T22:22:06.372Z,18.27
2022-12-11T22:27:09.559Z,13.90
2022-12-11T22:32:13.381Z,18.93
2022-12-11T22:37:17.758Z,25.50
2022-12-11T22:42:22.202Z,11.20
2022-12-11T22:47:26.196Z,18.23
2022-12-11T22:52:30.561Z,15.93
2022-12-11T22:57:33.839Z,22.90
2022-12-11T23:02:37.373Z,19.37
2022-12-11T23:07:52.206Z,8.90
2022-12-11T23:12:55.878Z,12.63
2022-12-11T23:17:59.604Z,7.80
2022-12-11T23:23:04.590Z,16.67
2022-12-11T23:28:07.965Z,5.77
2022-12-11T23:33:12.279Z,14.57
2022-12-11T23:38:19.158Z,12.60
2022-12-11T23:43:23.431Z,17.37
2022-12-11T23:48:26.966Z,14.67
2022-12-11T23:53:32.300Z,20.10
2022-12-11T23:58:38.582Z,16.37
